sensor_id;sensor_type;location;lat;lon;timestamp;pressure;altitude;pressure_sealevel;temperature;humidity
8140;BME280;4111;50.972;7.072;2023-02-14T00:00:38;103023.94;;;8.26;75.96
8140;BME280;4111;50.972;7.072;2023-02-14T00:03:04;103023.94;;;8.26;76.17
8140;BME280;4111;50.972;7.072;2023-02-14T00:05:31;103033.69;;;8.35;75.75
8140;BME280;4111;50.972;7.072;2023-02-14T00:07:57;103034.56;;;8.36;75.50
8140;BME280;4111;50.972;7.072;2023-02-14T00:10:23;103028.13;;;8.37;75.77
8140;BME280;4111;50.972;7.072;2023-02-14T00:12:50;103037.06;;;8.37;75.45
8140;BME280;4111;50.972;7.072;2023-02-14T00:15:17;103035.56;;;8.34;75.72
8140;BME280;4111;50.972;7.072;2023-02-14T00:17:51;103033.19;;;8.40;75.30
8140;BME280;4111;50.972;7.072;2023-02-14T00:20:18;103032.03;;;8.34;75.49
8140;BME280;4111;50.972;7.072;2023-02-14T00:22:44;103041.81;;;8.35;75.70
8140;BME280;4111;50.972;7.072;2023-02-14T00:25:11;103040.81;;;8.36;75.51
8140;BME280;4111;50.972;7.072;2023-02-14T00:27:37;103045.19;;;8.37;75.23
8140;BME280;4111;50.972;7.072;2023-02-14T00:30:06;103034.22;;;8.30;75.12
8140;BME280;4111;50.972;7.072;2023-02-14T00:32:35;103040.19;;;8.26;75.30
8140;BME280;4111;50.972;7.072;2023-02-14T00:35:02;103031.06;;;8.19;75.52
8140;BME280;4111;50.972;7.072;2023-02-14T00:37:28;103028.72;;;8.16;75.32
8140;BME280;4111;50.972;7.072;2023-02-14T00:39:54;103028.91;;;8.06;75.63
8140;BME280;4111;50.972;7.072;2023-02-14T00:42:21;103015.84;;;8.09;75.60
8140;BME280;4111;50.972;7.072;2023-02-14T00:44:47;103016.72;;;8.10;75.64
8140;BME280;4111;50.972;7.072;2023-02-14T00:47:14;103017.44;;;8.04;75.67
8140;BME280;4111;50.972;7.072;2023-02-14T00:49:40;103017.25;;;7.97;75.73
8140;BME280;4111;50.972;7.072;2023-02-14T00:52:06;103014.91;;;7.94;75.98
8140;BME280;4111;50.972;7.072;2023-02-14T00:54:33;103016.59;;;7.87;76.02
8140;BME280;4111;50.972;7.072;2023-02-14T00:56:59;103015.44;;;7.81;76.52
8140;BME280;4111;50.972;7.072;2023-02-14T00:59:26;103006.16;;;7.75;76.44
8140;BME280;4111;50.972;7.072;2023-02-14T01:01:52;103006.81;;;7.78;77.01
8140;BME280;4111;50.972;7.072;2023-02-14T01:04:18;103018.31;;;7.80;76.85
8140;BME280;4111;50.972;7.072;2023-02-14T01:06:45;103008.53;;;7.70;76.99
8140;BME280;4111;50.972;7.072;2023-02-14T01:09:11;103011.56;;;7.67;77.09
8140;BME280;4111;50.972;7.072;2023-02-14T01:11:38;103013.28;;;7.68;77.41
8140;BME280;4111;50.972;7.072;2023-02-14T01:14:05;103011.75;;;7.66;77.31
8140;BME280;4111;50.972;7.072;2023-02-14T01:16:32;103009.22;;;7.64;77.26
8140;BME280;4111;50.972;7.072;2023-02-14T01:18:59;103003.31;;;7.61;77.49
8140;BME280;4111;50.972;7.072;2023-02-14T01:21:31;103006.19;;;7.59;77.62
8140;BME280;4111;50.972;7.072;2023-02-14T01:24:01;103009.41;;;7.54;77.95
8140;BME280;4111;50.972;7.072;2023-02-14T01:26:28;103011.06;;;7.55;77.76
8140;BME280;4111;50.972;7.072;2023-02-14T01:28:55;103007.69;;;7.53;77.53
8140;BME280;4111;50.972;7.072;2023-02-14T01:31:28;103014.13;;;7.52;77.92
8140;BME280;4111;50.972;7.072;2023-02-14T01:33:56;103007.88;;;7.52;77.80
8140;BME280;4111;50.972;7.072;2023-02-14T01:36:25;103008.72;;;7.52;77.53
8140;BME280;4111;50.972;7.072;2023-02-14T01:38:54;103011.91;;;7.56;77.61
8140;BME280;4111;50.972;7.072;2023-02-14T01:41:22;103008.53;;;7.54;78.02
8140;BME280;4111;50.972;7.072;2023-02-14T01:44:02;103008.53;;;7.54;77.97
8140;BME280;4111;50.972;7.072;2023-02-14T01:46:34;103001.47;;;7.53;77.86
8140;BME280;4111;50.972;7.072;2023-02-14T01:49:12;103004.50;;;7.50;77.96
8140;BME280;4111;50.972;7.072;2023-02-14T01:51:44;103004.84;;;7.47;77.99
8140;BME280;4111;50.972;7.072;2023-02-14T01:54:15;103004.50;;;7.42;77.78
8140;BME280;4111;50.972;7.072;2023-02-14T01:56:46;103002.63;;;7.34;78.16
8140;BME280;4111;50.972;7.072;2023-02-14T01:59:18;103004.84;;;7.30;78.95
8140;BME280;4111;50.972;7.072;2023-02-14T02:01:47;102999.94;;;7.26;78.71
8140;BME280;4111;50.972;7.072;2023-02-14T02:04:19;102999.09;;;7.25;78.77
8140;BME280;4111;50.972;7.072;2023-02-14T02:06:51;102997.91;;;7.28;79.33
8140;BME280;4111;50.972;7.072;2023-02-14T02:09:24;102996.72;;;7.22;79.27
8140;BME280;4111;50.972;7.072;2023-02-14T02:11:54;102991.31;;;7.22;79.23
8140;BME280;4111;50.972;7.072;2023-02-14T02:14:21;102992.00;;;7.16;79.72
8140;BME280;4111;50.972;7.072;2023-02-14T02:28:17;102988.97;;;7.19;79.79
8140;BME280;4111;50.972;7.072;2023-02-14T02:42:44;102971.22;;;7.08;80.72
8140;BME280;4111;50.972;7.072;2023-02-14T02:45:26;102972.25;;;7.07;80.52
8140;BME280;4111;50.972;7.072;2023-02-14T02:48:08;102966.19;;;7.05;80.36
8140;BME280;4111;50.972;7.072;2023-02-14T02:50:40;102969.38;;;7.01;80.44
8140;BME280;4111;50.972;7.072;2023-02-14T02:56:31;102969.34;;;6.84;81.55
8140;BME280;4111;50.972;7.072;2023-02-14T02:59:24;102969.34;;;6.84;81.81
8140;BME280;4111;50.972;7.072;2023-02-14T03:02:18;102963.13;;;6.84;81.75
8140;BME280;4111;50.972;7.072;2023-02-14T03:04:50;102965.66;;;6.85;82.19
8140;BME280;4111;50.972;7.072;2023-02-14T03:07:32;102969.38;;;6.92;81.65
8140;BME280;4111;50.972;7.072;2023-02-14T03:12:56;102972.06;;;6.92;81.40
8140;BME280;4111;50.972;7.072;2023-02-14T03:16:17;102973.94;;;6.92;81.32
8140;BME280;4111;50.972;7.072;2023-02-14T03:22:07;102975.13;;;6.89;81.48
8140;BME280;4111;50.972;7.072;2023-02-14T03:24:55;102970.19;;;6.85;81.68
8140;BME280;4111;50.972;7.072;2023-02-14T03:27:38;102974.44;;;6.87;82.01
8140;BME280;4111;50.972;7.072;2023-02-14T03:30:20;102975.13;;;6.89;82.04
8140;BME280;4111;50.972;7.072;2023-02-14T03:33:04;102973.41;;;6.80;81.95
8140;BME280;4111;50.972;7.072;2023-02-14T03:38:23;102980.31;;;6.83;81.96
8140;BME280;4111;50.972;7.072;2023-02-14T03:41:01;102985.25;;;6.87;82.07
8140;BME280;4111;50.972;7.072;2023-02-14T03:43:33;102983.88;;;6.83;82.54
8140;BME280;4111;50.972;7.072;2023-02-14T03:46:07;102982.50;;;6.79;82.49
8140;BME280;4111;50.972;7.072;2023-02-14T03:48:36;102978.81;;;6.80;82.32
8140;BME280;4111;50.972;7.072;2023-02-14T03:51:05;102980.47;;;6.81;82.66
8140;BME280;4111;50.972;7.072;2023-02-14T03:53:35;102973.72;;;6.77;82.38
8140;BME280;4111;50.972;7.072;2023-02-14T03:56:11;102968.50;;;6.75;82.46
8140;BME280;4111;50.972;7.072;2023-02-14T03:58:42;102975.25;;;6.71;82.26
8140;BME280;4111;50.972;7.072;2023-02-14T04:01:15;102975.06;;;6.73;82.57
8140;BME280;4111;50.972;7.072;2023-02-14T04:03:44;102976.75;;;6.66;82.66
8140;BME280;4111;50.972;7.072;2023-02-14T04:06:12;102979.09;;;6.61;82.85
8140;BME280;4111;50.972;7.072;2023-02-14T04:08:38;102970.16;;;6.60;83.19
8140;BME280;4111;50.972;7.072;2023-02-14T04:11:05;102974.22;;;6.64;82.61
8140;BME280;4111;50.972;7.072;2023-02-14T04:13:33;102976.91;;;6.56;82.82
8140;BME280;4111;50.972;7.072;2023-02-14T04:16:00;102971.00;;;6.52;83.18
8140;BME280;4111;50.972;7.072;2023-02-14T04:18:26;102977.06;;;6.54;83.09
8140;BME280;4111;50.972;7.072;2023-02-14T04:21:11;102972.34;;;6.48;83.68
8140;BME280;4111;50.972;7.072;2023-02-14T04:23:38;102973.50;;;6.46;83.67
8140;BME280;4111;50.972;7.072;2023-02-14T04:26:04;102963.56;;;6.54;83.91
8140;BME280;4111;50.972;7.072;2023-02-14T04:28:31;102969.28;;;6.51;83.54
8140;BME280;4111;50.972;7.072;2023-02-14T04:31:02;102971.00;;;6.52;83.62
8140;BME280;4111;50.972;7.072;2023-02-14T04:33:29;102965.94;;;6.58;83.33
8140;BME280;4111;50.972;7.072;2023-02-14T04:35:56;102967.78;;;6.57;83.38
8140;BME280;4111;50.972;7.072;2023-02-14T04:38:22;102962.22;;;6.59;83.52
8140;BME280;4111;50.972;7.072;2023-02-14T04:40:49;102962.22;;;6.59;83.65
8140;BME280;4111;50.972;7.072;2023-02-14T04:43:17;102966.63;;;6.60;82.92
8140;BME280;4111;50.972;7.072;2023-02-14T04:45:43;102965.75;;;6.51;83.42
8140;BME280;4111;50.972;7.072;2023-02-14T04:48:10;102960.19;;;6.52;83.36
8140;BME280;4111;50.972;7.072;2023-02-14T04:50:36;102963.88;;;6.51;83.47
8140;BME280;4111;50.972;7.072;2023-02-14T04:53:03;102962.53;;;6.47;83.25
8140;BME280;4111;50.972;7.072;2023-02-14T04:55:29;102960.84;;;6.38;83.55
8140;BME280;4111;50.972;7.072;2023-02-14T04:57:55;102959.63;;;6.32;83.75
8140;BME280;4111;50.972;7.072;2023-02-14T05:00:22;102965.88;;;6.33;83.66
8140;BME280;4111;50.972;7.072;2023-02-14T05:02:49;102953.72;;;6.29;83.68
8140;BME280;4111;50.972;7.072;2023-02-14T05:05:15;102952.00;;;6.28;83.86
8140;BME280;4111;50.972;7.072;2023-02-14T05:07:42;102956.25;;;6.30;83.96
8140;BME280;4111;50.972;7.072;2023-02-14T05:10:13;102948.31;;;6.29;83.90
8140;BME280;4111;50.972;7.072;2023-02-14T05:12:40;102952.38;;;6.33;83.69
8140;BME280;4111;50.972;7.072;2023-02-14T05:15:07;102949.00;;;6.31;83.87
8140;BME280;4111;50.972;7.072;2023-02-14T05:17:34;102951.00;;;6.29;83.82
8140;BME280;4111;50.972;7.072;2023-02-14T05:20:03;102945.94;;;6.26;83.94
8140;BME280;4111;50.972;7.072;2023-02-14T05:22:30;102941.88;;;6.22;83.94
8140;BME280;4111;50.972;7.072;2023-02-14T05:24:57;102946.28;;;6.23;83.93
8140;BME280;4111;50.972;7.072;2023-02-14T05:27:23;102939.69;;;6.17;84.10
8140;BME280;4111;50.972;7.072;2023-02-14T05:29:49;102935.47;;;6.14;84.06
8140;BME280;4111;50.972;7.072;2023-02-14T05:32:16;102926.69;;;6.12;84.18
8140;BME280;4111;50.972;7.072;2023-02-14T05:34:42;102937.09;;;6.07;84.35
8140;BME280;4111;50.972;7.072;2023-02-14T05:37:09;102931.34;;;6.02;84.16
8140;BME280;4111;50.972;7.072;2023-02-14T05:39:35;102934.03;;;6.02;84.03
8140;BME280;4111;50.972;7.072;2023-02-14T05:42:01;102933.88;;;6.04;84.19
8140;BME280;4111;50.972;7.072;2023-02-14T05:44:28;102927.97;;;6.00;84.01
8140;BME280;4111;50.972;7.072;2023-02-14T05:46:54;102930.44;;;5.93;84.11
8140;BME280;4111;50.972;7.072;2023-02-14T05:49:21;102927.03;;;5.83;84.46
8140;BME280;4111;50.972;7.072;2023-02-14T05:51:47;102928.81;;;5.74;84.60
8140;BME280;4111;50.972;7.072;2023-02-14T05:54:14;102935.19;;;5.65;84.71
8140;BME280;4111;50.972;7.072;2023-02-14T05:56:41;102934.81;;;5.60;84.91
8140;BME280;4111;50.972;7.072;2023-02-14T05:59:07;102938.03;;;5.64;84.94
8140;BME280;4111;50.972;7.072;2023-02-14T06:01:33;102929.66;;;5.67;84.78
8140;BME280;4111;50.972;7.072;2023-02-14T06:04:00;102934.84;;;5.68;85.44
8140;BME280;4111;50.972;7.072;2023-02-14T06:06:26;102935.03;;;5.67;85.38
8140;BME280;4111;50.972;7.072;2023-02-14T06:08:53;102938.25;;;5.70;85.26
8140;BME280;4111;50.972;7.072;2023-02-14T06:11:19;102941.97;;;5.69;85.62
8140;BME280;4111;50.972;7.072;2023-02-14T06:13:46;102933.72;;;5.71;85.68
8140;BME280;4111;50.972;7.072;2023-02-14T06:16:12;102943.97;;;5.67;86.08
8140;BME280;4111;50.972;7.072;2023-02-14T06:18:39;102949.88;;;5.71;86.06
8140;BME280;4111;50.972;7.072;2023-02-14T06:21:05;102943.13;;;5.67;85.76
8140;BME280;4111;50.972;7.072;2023-02-14T06:23:32;102951.38;;;5.65;86.11
8140;BME280;4111;50.972;7.072;2023-02-14T06:25:58;102949.88;;;5.71;86.49
8140;BME280;4111;50.972;7.072;2023-02-14T06:28:24;102946.63;;;5.59;86.48
8140;BME280;4111;50.972;7.072;2023-02-14T06:30:51;102943.53;;;5.54;87.23
8140;BME280;4111;50.972;7.072;2023-02-14T06:33:17;102953.16;;;5.56;87.42
8140;BME280;4111;50.972;7.072;2023-02-14T06:35:44;102953.72;;;5.68;88.28
8140;BME280;4111;50.972;7.072;2023-02-14T06:38:10;102952.88;;;6.28;90.17
8140;BME280;4111;50.972;7.072;2023-02-14T06:40:36;102954.78;;;6.44;90.04
8140;BME280;4111;50.972;7.072;2023-02-14T06:43:03;102947.53;;;6.53;88.78
8140;BME280;4111;50.972;7.072;2023-02-14T06:45:30;102957.47;;;6.44;87.84
8140;BME280;4111;50.972;7.072;2023-02-14T06:47:56;102963.19;;;6.49;87.39
8140;BME280;4111;50.972;7.072;2023-02-14T06:50:22;102957.28;;;6.38;87.17
8140;BME280;4111;50.972;7.072;2023-02-14T06:52:49;102961.69;;;6.47;86.89
8140;BME280;4111;50.972;7.072;2023-02-14T06:55:17;102953.75;;;6.53;86.72
8140;BME280;4111;50.972;7.072;2023-02-14T06:57:43;102957.84;;;6.58;86.63
8140;BME280;4111;50.972;7.072;2023-02-14T07:00:11;102949.72;;;6.49;86.05
8140;BME280;4111;50.972;7.072;2023-02-14T07:02:39;102958.97;;;6.39;86.06
8140;BME280;4111;50.972;7.072;2023-02-14T07:05:06;102963.16;;;6.25;85.42
8140;BME280;4111;50.972;7.072;2023-02-14T07:07:33;102959.78;;;6.31;85.89
8140;BME280;4111;50.972;7.072;2023-02-14T07:09:59;102965.34;;;6.29;85.84
8140;BME280;4111;50.972;7.072;2023-02-14T07:12:25;102963.16;;;6.25;85.64
8140;BME280;4111;50.972;7.072;2023-02-14T07:14:52;102963.81;;;6.19;85.64
8140;BME280;4111;50.972;7.072;2023-02-14T07:17:18;102966.66;;;6.17;85.87
8140;BME280;4111;50.972;7.072;2023-02-14T07:19:45;102966.97;;;6.14;85.53
8140;BME280;4111;50.972;7.072;2023-02-14T07:22:11;102968.50;;;6.17;85.05
8140;BME280;4111;50.972;7.072;2023-02-14T07:24:37;102966.13;;;6.13;85.40
8140;BME280;4111;50.972;7.072;2023-02-14T07:27:04;102967.50;;;6.18;85.66
8140;BME280;4111;50.972;7.072;2023-02-14T07:29:30;102960.41;;;6.17;85.47
8140;BME280;4111;50.972;7.072;2023-02-14T07:31:57;102959.75;;;6.23;85.31
8140;BME280;4111;50.972;7.072;2023-02-14T07:34:23;102963.31;;;6.23;85.58
8140;BME280;4111;50.972;7.072;2023-02-14T07:36:50;102957.22;;;6.21;85.08
8140;BME280;4111;50.972;7.072;2023-02-14T07:39:16;102963.44;;;6.13;85.53
8140;BME280;4111;50.972;7.072;2023-02-14T07:41:43;102964.81;;;6.26;85.95
8140;BME280;4111;50.972;7.072;2023-02-14T07:44:09;102968.72;;;6.31;85.35
8140;BME280;4111;50.972;7.072;2023-02-14T07:46:36;102961.00;;;6.37;85.34
8140;BME280;4111;50.972;7.072;2023-02-14T07:49:02;102966.91;;;6.40;85.45
8140;BME280;4111;50.972;7.072;2023-02-14T07:51:29;102963.34;;;6.40;85.32
8140;BME280;4111;50.972;7.072;2023-02-14T07:53:55;102964.03;;;6.42;85.43
8140;BME280;4111;50.972;7.072;2023-02-14T07:56:22;102962.22;;;6.50;85.23
8140;BME280;4111;50.972;7.072;2023-02-14T07:58:49;102960.72;;;6.56;84.87
8140;BME280;4111;50.972;7.072;2023-02-14T08:01:16;102959.53;;;6.59;84.63
8140;BME280;4111;50.972;7.072;2023-02-14T08:03:42;102960.88;;;6.63;84.45
8140;BME280;4111;50.972;7.072;2023-02-14T08:06:11;102966.44;;;6.69;84.47
8140;BME280;4111;50.972;7.072;2023-02-14T08:08:37;102966.28;;;6.71;84.36
8140;BME280;4111;50.972;7.072;2023-02-14T08:11:04;102961.25;;;6.76;84.68
8140;BME280;4111;50.972;7.072;2023-02-14T08:13:30;102961.25;;;6.84;84.26
8140;BME280;4111;50.972;7.072;2023-02-14T08:15:57;102969.19;;;6.94;84.24
8140;BME280;4111;50.972;7.072;2023-02-14T08:18:39;102956.53;;;6.94;83.90
8140;BME280;4111;50.972;7.072;2023-02-14T08:21:07;102965.97;;;7.07;83.68
8140;BME280;4111;50.972;7.072;2023-02-14T08:23:35;102964.47;;;7.12;83.28
8140;BME280;4111;50.972;7.072;2023-02-14T08:26:02;102963.31;;;7.23;83.19
8140;BME280;4111;50.972;7.072;2023-02-14T08:28:29;102963.47;;;7.30;83.10
8140;BME280;4111;50.972;7.072;2023-02-14T08:30:57;102966.50;;;7.35;82.35
8140;BME280;4111;50.972;7.072;2023-02-14T08:33:24;102966.31;;;7.45;82.31
8140;BME280;4111;50.972;7.072;2023-02-14T08:35:51;102965.66;;;7.51;81.96
8140;BME280;4111;50.972;7.072;2023-02-14T08:38:18;102974.41;;;7.61;81.63
8140;BME280;4111;50.972;7.072;2023-02-14T08:40:45;102974.56;;;7.60;81.44
8140;BME280;4111;50.972;7.072;2023-02-14T08:43:12;102970.69;;;7.70;80.99
8140;BME280;4111;50.972;7.072;2023-02-14T08:45:39;102961.97;;;7.91;80.71
8140;BME280;4111;50.972;7.072;2023-02-14T08:48:08;102968.25;;;7.92;80.35
8140;BME280;4111;50.972;7.072;2023-02-14T08:50:36;102961.09;;;7.99;80.24
8140;BME280;4111;50.972;7.072;2023-02-14T08:53:08;102963.47;;;8.02;79.31
8140;BME280;4111;50.972;7.072;2023-02-14T08:55:35;102965.81;;;8.05;79.18
8140;BME280;4111;50.972;7.072;2023-02-14T08:58:01;102962.69;;;8.25;79.09
8140;BME280;4111;50.972;7.072;2023-02-14T09:00:29;102966.38;;;8.32;78.39
8140;BME280;4111;50.972;7.072;2023-02-14T09:02:56;102964.66;;;8.39;78.25
8140;BME280;4111;50.972;7.072;2023-02-14T09:05:22;102967.00;;;8.50;77.89
8140;BME280;4111;50.972;7.072;2023-02-14T09:07:49;102959.78;;;8.66;77.71
8140;BME280;4111;50.972;7.072;2023-02-14T09:10:16;102959.75;;;8.74;77.10
8140;BME280;4111;50.972;7.072;2023-02-14T09:12:44;102963.44;;;8.81;76.69
8140;BME280;4111;50.972;7.072;2023-02-14T09:15:11;102962.69;;;8.87;76.09
8140;BME280;4111;50.972;7.072;2023-02-14T09:17:38;102954.84;;;8.92;75.54
8140;BME280;4111;50.972;7.072;2023-02-14T09:20:09;102956.56;;;8.93;75.41
8140;BME280;4111;50.972;7.072;2023-02-14T09:22:36;102957.16;;;9.04;75.00
8140;BME280;4111;50.972;7.072;2023-02-14T09:25:02;102955.69;;;9.16;74.72
8140;BME280;4111;50.972;7.072;2023-02-14T09:27:29;102951.88;;;9.25;74.23
8140;BME280;4111;50.972;7.072;2023-02-14T09:29:56;102948.44;;;9.31;73.73
8140;BME280;4111;50.972;7.072;2023-02-14T09:32:22;102943.13;;;9.38;73.70
8140;BME280;4111;50.972;7.072;2023-02-14T09:34:50;102942.47;;;9.51;73.48
8140;BME280;4111;50.972;7.072;2023-02-14T09:37:35;102940.81;;;9.50;72.80
8140;BME280;4111;50.972;7.072;2023-02-14T09:40:20;102934.63;;;9.56;72.49
8140;BME280;4111;50.972;7.072;2023-02-14T09:43:06;102936.03;;;9.67;72.67
8140;BME280;4111;50.972;7.072;2023-02-14T09:45:37;102941.19;;;9.77;72.00
8140;BME280;4111;50.972;7.072;2023-02-14T09:48:17;102939.13;;;9.79;71.61
8140;BME280;4111;50.972;7.072;2023-02-14T09:50:48;102928.00;;;9.88;71.38
8140;BME280;4111;50.972;7.072;2023-02-14T09:53:25;102933.13;;;9.98;71.40
8140;BME280;4111;50.972;7.072;2023-02-14T09:56:18;102927.41;;;10.08;71.05
8140;BME280;4111;50.972;7.072;2023-02-14T10:01:26;102918.50;;;10.29;70.35
8140;BME280;4111;50.972;7.072;2023-02-14T10:07:12;102923.72;;;10.45;69.94
8140;BME280;4111;50.972;7.072;2023-02-14T10:12:37;102923.91;;;10.44;69.30
8140;BME280;4111;50.972;7.072;2023-02-14T10:15:16;102915.44;;;10.54;69.44
8140;BME280;4111;50.972;7.072;2023-02-14T10:18:21;102918.28;;;10.67;68.86
8140;BME280;4111;50.972;7.072;2023-02-14T10:20:53;102918.75;;;10.70;68.43
8140;BME280;4111;50.972;7.072;2023-02-14T10:23:26;102911.09;;;10.81;68.13
8140;BME280;4111;50.972;7.072;2023-02-14T10:25:59;102909.50;;;10.65;67.76
8140;BME280;4111;50.972;7.072;2023-02-14T10:28:33;102911.81;;;10.68;67.89
8140;BME280;4111;50.972;7.072;2023-02-14T10:31:24;102914.66;;;10.81;67.30
8140;BME280;4111;50.972;7.072;2023-02-14T10:45:16;102902.34;;;11.07;66.89
8140;BME280;4111;50.972;7.072;2023-02-14T10:55:49;102886.25;;;11.40;65.72
8140;BME280;4111;50.972;7.072;2023-02-14T10:58:18;102886.91;;;11.42;65.80
8140;BME280;4111;50.972;7.072;2023-02-14T11:00:55;102883.19;;;11.50;65.46
8140;BME280;4111;50.972;7.072;2023-02-14T11:03:25;102872.38;;;11.63;65.24
8140;BME280;4111;50.972;7.072;2023-02-14T11:05:52;102875.31;;;11.62;64.81
8140;BME280;4111;50.972;7.072;2023-02-14T11:08:32;102872.22;;;11.71;64.64
8140;BME280;4111;50.972;7.072;2023-02-14T11:11:26;102865.00;;;11.92;64.77
8140;BME280;4111;50.972;7.072;2023-02-14T11:13:55;102864.63;;;12.02;64.77
8140;BME280;4111;50.972;7.072;2023-02-14T11:16:29;102855.88;;;12.20;64.28
8140;BME280;4111;50.972;7.072;2023-02-14T11:21:41;102850.88;;;12.43;63.60
8140;BME280;4111;50.972;7.072;2023-02-14T11:24:24;102846.25;;;12.44;62.69
8140;BME280;4111;50.972;7.072;2023-02-14T11:26:54;102840.84;;;12.50;62.57
8140;BME280;4111;50.972;7.072;2023-02-14T11:29:30;102843.38;;;12.59;62.30
8140;BME280;4111;50.972;7.072;2023-02-14T11:32:06;102838.94;;;12.58;61.63
8140;BME280;4111;50.972;7.072;2023-02-14T11:34:44;102844.84;;;12.48;61.88
8140;BME280;4111;50.972;7.072;2023-02-14T11:37:26;102837.06;;;12.52;61.86
8140;BME280;4111;50.972;7.072;2023-02-14T11:39:55;102830.78;;;12.58;61.73
8140;BME280;4111;50.972;7.072;2023-02-14T11:45:03;102826.59;;;12.62;61.78
8140;BME280;4111;50.972;7.072;2023-02-14T11:47:34;102826.16;;;12.65;61.67
8140;BME280;4111;50.972;7.072;2023-02-14T11:50:21;102819.88;;;12.71;61.26
8140;BME280;4111;50.972;7.072;2023-02-14T11:52:51;102811.28;;;12.81;61.31
8140;BME280;4111;50.972;7.072;2023-02-14T11:55:30;102806.47;;;12.89;61.15
8140;BME280;4111;50.972;7.072;2023-02-14T11:58:02;102805.59;;;13.02;61.20
8140;BME280;4111;50.972;7.072;2023-02-14T12:00:31;102802.63;;;13.10;60.58
8140;BME280;4111;50.972;7.072;2023-02-14T12:02:58;102799.91;;;13.17;60.57
8140;BME280;4111;50.972;7.072;2023-02-14T12:05:30;102796.94;;;13.25;60.39
8140;BME280;4111;50.972;7.072;2023-02-14T12:08:03;102787.94;;;13.18;60.18
8140;BME280;4111;50.972;7.072;2023-02-14T12:10:31;102786.28;;;13.17;59.99
8140;BME280;4111;50.972;7.072;2023-02-14T12:13:00;102778.72;;;13.19;59.54
8140;BME280;4111;50.972;7.072;2023-02-14T12:18:28;102765.69;;;13.21;59.43
8140;BME280;4111;50.972;7.072;2023-02-14T12:28:50;102752.34;;;13.58;58.38
8140;BME280;4111;50.972;7.072;2023-02-14T12:31:20;102744.03;;;13.78;58.09
8140;BME280;4111;50.972;7.072;2023-02-14T12:33:47;102741.28;;;13.85;57.49
8140;BME280;4111;50.972;7.072;2023-02-14T12:36:37;102740.09;;;14.06;57.25
8140;BME280;4111;50.972;7.072;2023-02-14T12:39:15;102739.00;;;14.39;57.40
8140;BME280;4111;50.972;7.072;2023-02-14T12:44:54;102739.50;;;14.79;56.36
8140;BME280;4111;50.972;7.072;2023-02-14T12:50:46;102728.78;;;14.96;55.02
8140;BME280;4111;50.972;7.072;2023-02-14T12:53:34;102728.13;;;15.01;54.23
8140;BME280;4111;50.972;7.072;2023-02-14T12:59:12;102718.00;;;15.20;53.81
8140;BME280;4111;50.972;7.072;2023-02-14T13:04:33;102707.25;;;15.37;53.51
8140;BME280;4111;50.972;7.072;2023-02-14T13:07:30;102699.44;;;15.22;53.01
8140;BME280;4111;50.972;7.072;2023-02-14T13:13:03;102696.22;;;15.43;53.46
8140;BME280;4111;50.972;7.072;2023-02-14T13:15:45;102686.84;;;15.51;52.80
8140;BME280;4111;50.972;7.072;2023-02-14T13:18:34;102683.50;;;15.49;52.65
8140;BME280;4111;50.972;7.072;2023-02-14T13:21:07;102674.84;;;15.52;52.39
8140;BME280;4111;50.972;7.072;2023-02-14T13:23:39;102671.78;;;15.42;52.14
8140;BME280;4111;50.972;7.072;2023-02-14T13:26:16;102671.78;;;15.42;52.00
8140;BME280;4111;50.972;7.072;2023-02-14T13:28:49;102667.44;;;15.53;52.29
8140;BME280;4111;50.972;7.072;2023-02-14T13:31:18;102663.19;;;15.57;52.30
8140;BME280;4111;50.972;7.072;2023-02-14T13:33:59;102664.38;;;15.61;51.86
8140;BME280;4111;50.972;7.072;2023-02-14T13:36:29;102650.97;;;15.41;51.94
8140;BME280;4111;50.972;7.072;2023-02-14T13:38:58;102652.59;;;15.60;51.99
8140;BME280;4111;50.972;7.072;2023-02-14T13:41:25;102651.94;;;15.77;51.60
8140;BME280;4111;50.972;7.072;2023-02-14T13:43:56;102640.28;;;15.93;51.53
8140;BME280;4111;50.972;7.072;2023-02-14T13:49:22;102638.63;;;15.92;51.06
8140;BME280;4111;50.972;7.072;2023-02-14T13:51:56;102636.97;;;16.15;51.17
8140;BME280;4111;50.972;7.072;2023-02-14T13:54:33;102644.72;;;16.53;50.69
8140;BME280;4111;50.972;7.072;2023-02-14T13:57:24;102637.66;;;16.69;49.89
8140;BME280;4111;50.972;7.072;2023-02-14T14:02:55;102634.72;;;17.40;48.66
8140;BME280;4111;50.972;7.072;2023-02-14T14:10:57;102633.06;;;18.79;46.87
8140;BME280;4111;50.972;7.072;2023-02-14T14:21:37;102621.44;;;19.76;44.04
8140;BME280;4111;50.972;7.072;2023-02-14T14:24:24;102623.28;;;19.97;43.45
8140;BME280;4111;50.972;7.072;2023-02-14T14:27:03;102622.94;;;20.26;42.62
8140;BME280;4111;50.972;7.072;2023-02-14T14:29:38;102614.72;;;20.41;42.68
8140;BME280;4111;50.972;7.072;2023-02-14T14:32:16;102613.53;;;20.27;40.95
8140;BME280;4111;50.972;7.072;2023-02-14T14:35:16;102602.19;;;20.24;41.33
8140;BME280;4111;50.972;7.072;2023-02-14T14:40:43;102601.78;;;21.05;40.69
8140;BME280;4111;50.972;7.072;2023-02-14T14:43:13;102599.03;;;21.20;39.56
8140;BME280;4111;50.972;7.072;2023-02-14T14:45:47;102594.09;;;21.38;39.00
8140;BME280;4111;50.972;7.072;2023-02-14T14:48:25;102583.84;;;21.23;38.72
8140;BME280;4111;50.972;7.072;2023-02-14T14:50:52;102585.78;;;21.17;38.66
8140;BME280;4111;50.972;7.072;2023-02-14T14:53:38;102575.06;;;21.47;38.74
8140;BME280;4111;50.972;7.072;2023-02-14T14:56:16;102582.53;;;21.56;39.06
8140;BME280;4111;50.972;7.072;2023-02-14T14:58:44;102578.63;;;21.37;38.23
8140;BME280;4111;50.972;7.072;2023-02-14T15:01:13;102578.00;;;20.94;37.84
8140;BME280;4111;50.972;7.072;2023-02-14T15:03:52;102569.97;;;21.03;38.62
8140;BME280;4111;50.972;7.072;2023-02-14T15:06:20;102569.16;;;20.92;38.04
8140;BME280;4111;50.972;7.072;2023-02-14T15:08:48;102572.41;;;20.78;38.25
8140;BME280;4111;50.972;7.072;2023-02-14T15:11:19;102573.47;;;20.67;38.67
8140;BME280;4111;50.972;7.072;2023-02-14T15:14:07;102567.03;;;19.98;39.24
8140;BME280;4111;50.972;7.072;2023-02-14T15:17:23;102575.22;;;18.74;40.43
8140;BME280;4111;50.972;7.072;2023-02-14T15:19:43;102573.75;;;18.06;41.62
8140;BME280;4111;50.972;7.072;2023-02-14T15:25:09;102563.56;;;16.81;43.46
8140;BME280;4111;50.972;7.072;2023-02-14T15:27:39;102571.28;;;16.55;43.78
8140;BME280;4111;50.972;7.072;2023-02-14T15:32:48;102559.88;;;15.99;45.25
8140;BME280;4111;50.972;7.072;2023-02-14T15:35:20;102560.44;;;15.54;46.36
8140;BME280;4111;50.972;7.072;2023-02-14T15:37:49;102574.75;;;15.26;47.39
8140;BME280;4111;50.972;7.072;2023-02-14T15:40:22;102569.66;;;14.99;48.31